createdAt,value
2019-04-11T00:01:39.414Z,2.10
2019-04-11T00:04:04.045Z,2.19
2019-04-11T00:06:32.205Z,2.19
2019-04-11T00:09:00.716Z,2.17
2019-04-11T00:11:30.182Z,2.02
2019-04-11T00:13:59.812Z,1.99
2019-04-11T00:16:28.950Z,2.08
2019-04-11T00:18:58.651Z,2.01
2019-04-11T00:21:27.127Z,1.96
2019-04-11T00:23:56.535Z,1.90
2019-04-11T00:26:26.340Z,1.93
2019-04-11T00:28:56.681Z,1.88
2019-04-11T00:31:25.199Z,1.93
2019-04-11T00:33:54.265Z,1.96
2019-04-11T00:36:22.584Z,1.82
2019-04-11T00:38:50.946Z,1.84
2019-04-11T00:41:19.165Z,1.84
2019-04-11T00:43:47.556Z,1.81
2019-04-11T00:46:16.250Z,1.75
2019-04-11T00:48:44.578Z,1.80
2019-04-11T00:51:13.901Z,1.78
2019-04-11T00:53:42.393Z,1.72
2019-04-11T00:56:10.944Z,1.88
2019-04-11T00:58:39.248Z,1.74
2019-04-11T01:01:07.599Z,1.73
2019-04-11T01:03:36.040Z,1.67
2019-04-11T01:06:05.720Z,1.68
2019-04-11T01:08:34.361Z,1.67
2019-04-11T01:11:03.601Z,1.60
2019-04-11T01:13:41.442Z,1.60
2019-04-11T01:16:16.133Z,1.60
2019-04-11T01:18:44.495Z,1.49
2019-04-11T01:21:13.601Z,1.63
2019-04-11T01:23:42.892Z,1.69
2019-04-11T01:26:11.191Z,1.54
2019-04-11T01:28:39.341Z,1.55
2019-04-11T01:31:09.528Z,1.59
2019-04-11T01:33:37.995Z,1.61
2019-04-11T01:36:06.996Z,1.60
2019-04-11T01:38:40.877Z,1.68
2019-04-11T01:41:10.014Z,1.72
2019-04-11T01:43:38.296Z,1.68
2019-04-11T01:46:07.718Z,1.60
2019-04-11T01:48:54.146Z,1.71
2019-04-11T01:51:23.408Z,1.67
2019-04-11T01:53:51.672Z,1.66
2019-04-11T01:56:21.093Z,1.69
2019-04-11T01:58:49.660Z,1.68
2019-04-11T02:01:26.727Z,1.66
2019-04-11T02:04:03.693Z,1.70
2019-04-11T02:06:32.264Z,1.59
2019-04-11T02:09:01.891Z,1.57
2019-04-11T02:11:31.753Z,1.60
2019-04-11T02:14:10.432Z,1.66
2019-04-11T02:16:30.929Z,1.81
2019-04-11T02:18:59.541Z,1.68
2019-04-11T02:21:29.462Z,1.77
2019-04-11T02:24:03.835Z,1.78
2019-04-11T02:26:33.785Z,1.79
2019-04-11T02:29:01.914Z,1.78
2019-04-11T02:31:30.595Z,1.77
2019-04-11T02:33:59.518Z,2.03
2019-04-11T02:36:30.073Z,1.82
2019-04-11T02:39:02.171Z,1.79
2019-04-11T02:41:29.855Z,2.02
2019-04-11T02:43:59.334Z,1.97
2019-04-11T02:46:36.411Z,1.91
2019-04-11T02:48:59.378Z,1.94
2019-04-11T02:51:28.893Z,2.02
2019-04-11T02:53:58.967Z,1.92
2019-04-11T02:56:27.948Z,2.00
2019-04-11T02:58:56.990Z,2.12
2019-04-11T03:01:26.254Z,1.88
2019-04-11T03:03:57.007Z,1.95
2019-04-11T03:06:25.962Z,1.89
2019-04-11T03:08:55.123Z,1.79
2019-04-11T03:11:26.077Z,1.86
2019-04-11T03:13:58.149Z,1.81
2019-04-11T03:16:39.433Z,1.87
2019-04-11T03:19:16.022Z,1.79
2019-04-11T03:21:29.189Z,1.74
2019-04-11T03:23:58.842Z,1.98
2019-04-11T03:26:29.084Z,1.65
2019-04-11T03:28:57.867Z,1.87
2019-04-11T03:32:08.173Z,1.82
2019-04-11T03:35:02.890Z,1.80
2019-04-11T03:39:21.644Z,1.93
2019-04-11T03:41:48.933Z,1.83
2019-04-11T03:44:13.816Z,1.89
2019-04-11T03:46:48.242Z,1.78
2019-04-11T03:49:16.552Z,1.79
2019-04-11T03:51:33.856Z,1.73
2019-04-11T03:54:02.897Z,1.76
2019-04-11T03:56:32.809Z,1.73
2019-04-11T03:59:03.817Z,1.68
2019-04-11T04:01:33.907Z,1.85
2019-04-11T04:04:03.438Z,1.69
2019-04-11T04:06:33.076Z,1.64
2019-04-11T04:09:02.785Z,1.65
2019-04-11T04:11:32.636Z,1.63
2019-04-11T04:14:17.813Z,1.57
2019-04-11T04:17:10.060Z,1.60
2019-04-11T04:20:04.925Z,1.69
2019-04-11T04:22:56.661Z,1.75
2019-04-11T04:25:26.217Z,1.80
2019-04-11T04:27:55.142Z,1.95
2019-04-11T04:30:27.084Z,2.08
2019-04-11T04:32:56.586Z,2.04
2019-04-11T04:35:26.208Z,2.04
2019-04-11T04:37:56.946Z,2.13
2019-04-11T04:40:46.327Z,2.08
2019-04-11T04:43:00.233Z,2.10
2019-04-11T04:45:28.343Z,1.97
2019-04-11T04:48:03.403Z,2.05
2019-04-11T04:50:28.745Z,2.05
2019-04-11T04:52:58.664Z,2.08
2019-04-11T04:55:30.156Z,2.14
2019-04-11T04:57:59.689Z,2.15
2019-04-11T05:00:31.451Z,2.20
2019-04-11T05:02:59.948Z,2.28
2019-04-11T05:05:30.976Z,2.31
2019-04-11T05:08:00.639Z,2.32
2019-04-11T05:10:30.682Z,2.35
2019-04-11T05:12:59.304Z,2.35
2019-04-11T05:15:28.271Z,2.35
2019-04-11T05:17:57.671Z,2.40
2019-04-11T05:20:26.285Z,2.50
2019-04-11T05:22:54.473Z,2.53
2019-04-11T05:25:23.272Z,2.64
2019-04-11T05:27:51.736Z,2.68
2019-04-11T05:30:20.222Z,2.81
2019-04-11T05:32:49.345Z,2.81
2019-04-11T05:35:18.509Z,2.92
2019-04-11T05:37:47.140Z,2.91
2019-04-11T05:40:15.509Z,3.04
2019-04-11T05:42:43.699Z,3.15
2019-04-11T05:45:17.155Z,3.15
2019-04-11T05:47:41.998Z,3.18
2019-04-11T05:50:36.185Z,3.19
2019-04-11T05:53:05.548Z,3.27
2019-04-11T05:55:41.556Z,3.42
2019-04-11T05:58:13.781Z,3.45
2019-04-11T06:01:10.050Z,3.45
2019-04-11T06:03:41.063Z,3.49
2019-04-11T06:06:18.807Z,3.57
2019-04-11T06:08:48.254Z,3.74
2019-04-11T06:11:34.973Z,3.91
2019-04-11T06:14:11.513Z,3.93
2019-04-11T06:16:47.295Z,3.97
2019-04-11T06:19:33.517Z,4.00
2019-04-11T06:22:04.575Z,4.07
2019-04-11T06:24:42.603Z,4.05
2019-04-11T06:27:22.082Z,4.24
2019-04-11T06:30:07.519Z,4.30
2019-04-11T06:32:54.568Z,4.42
2019-04-11T06:35:30.333Z,4.49
2019-04-11T06:38:18.443Z,4.66
2019-04-11T06:40:54.763Z,4.95
2019-04-11T06:43:32.319Z,4.67
2019-04-11T06:46:20.797Z,4.59
2019-04-11T06:49:09.828Z,4.56
2019-04-11T06:51:44.165Z,4.63
2019-04-11T06:54:19.046Z,4.59
2019-04-11T06:56:48.160Z,4.88
2019-04-11T06:59:29.591Z,4.73
2019-04-11T07:02:08.930Z,4.79
2019-04-11T07:04:35.874Z,4.90
2019-04-11T07:07:06.592Z,5.11
2019-04-11T07:09:39.635Z,5.31
2019-04-11T07:12:15.593Z,5.30
2019-04-11T07:14:55.114Z,5.46
2019-04-11T07:17:42.154Z,5.57
2019-04-11T07:20:41.993Z,5.57
2019-04-11T07:23:30.712Z,5.62
2019-04-11T07:26:08.010Z,5.76
2019-04-11T07:28:54.421Z,5.69
2019-04-11T07:31:41.032Z,5.80
2019-04-11T07:34:31.433Z,6.35
2019-04-11T07:37:23.624Z,6.70
2019-04-11T07:40:24.314Z,7.44
2019-04-11T07:43:15.361Z,7.71
2019-04-11T07:46:02.737Z,7.77
2019-04-11T07:48:40.205Z,8.02
2019-04-11T07:51:17.614Z,8.60
2019-04-11T07:53:48.244Z,7.92
2019-04-11T07:56:30.684Z,8.04
2019-04-11T07:59:02.914Z,8.45
2019-04-11T08:01:53.601Z,8.47
2019-04-11T08:04:40.804Z,8.83
2019-04-11T08:07:31.321Z,8.80
2019-04-11T08:10:05.833Z,8.25
2019-04-11T08:12:34.346Z,8.63
2019-04-11T08:15:21.828Z,8.63
2019-04-11T08:17:50.141Z,8.60
2019-04-11T08:20:37.470Z,8.47
2019-04-11T08:23:07.591Z,9.07
2019-04-11T08:25:54.323Z,8.88
2019-04-11T08:28:22.679Z,8.97
2019-04-11T08:31:16.610Z,8.74
2019-04-11T08:33:44.738Z,8.81
2019-04-11T08:36:31.769Z,9.03
2019-04-11T08:39:01.978Z,8.79
2019-04-11T08:42:09.390Z,8.81
2019-04-11T08:44:39.748Z,8.81
2019-04-11T08:47:13.045Z,8.90
2019-04-11T08:49:43.315Z,8.89
2019-04-11T08:52:43.027Z,9.01
2019-04-11T08:55:17.251Z,9.34
2019-04-11T08:57:49.873Z,9.48
2019-04-11T09:00:43.803Z,9.80
2019-04-11T09:03:19.688Z,9.41
2019-04-11T09:06:02.413Z,9.76
2019-04-11T09:08:54.464Z,9.30
2019-04-11T09:11:44.689Z,9.42
2019-04-11T09:14:41.553Z,9.27
2019-04-11T09:17:28.293Z,9.89
2019-04-11T09:20:25.511Z,9.84
2019-04-11T09:23:05.729Z,10.26
2019-04-11T09:25:54.649Z,9.38
2019-04-11T09:28:44.087Z,9.07
2019-04-11T09:31:41.774Z,9.10
2019-04-11T09:34:42.305Z,8.62
2019-04-11T09:37:22.147Z,8.91
2019-04-11T09:40:05.695Z,9.29
2019-04-11T09:42:48.865Z,8.70
2019-04-11T09:45:33.300Z,8.54
2019-04-11T09:48:21.019Z,8.41
2019-04-11T09:51:00.870Z,8.19
2019-04-11T09:53:30.305Z,8.69
2019-04-11T09:56:13.218Z,9.03
2019-04-11T09:58:42.150Z,9.27
2019-04-11T10:01:39.326Z,9.53
2019-04-11T10:04:08.853Z,9.38
2019-04-11T10:06:57.096Z,9.54
2019-04-11T10:09:32.889Z,8.99
2019-04-11T10:12:20.039Z,9.30
2019-04-11T10:14:50.153Z,8.64
2019-04-11T10:17:42.353Z,8.73
2019-04-11T10:20:13.042Z,8.94
2019-04-11T10:23:08.145Z,8.45
2019-04-11T10:25:45.575Z,8.71
2019-04-11T10:28:33.429Z,9.33
2019-04-11T10:31:28.429Z,9.59
2019-04-11T10:34:19.652Z,9.79
2019-04-11T10:36:55.703Z,10.56
2019-04-11T10:39:59.825Z,10.78
2019-04-11T10:42:30.691Z,11.01
2019-04-11T10:45:24.890Z,10.64
2019-04-11T10:47:58.951Z,9.87
2019-04-11T10:50:48.771Z,8.97
2019-04-11T10:53:17.995Z,8.97
2019-04-11T10:56:08.945Z,8.93
2019-04-11T10:59:03.322Z,8.83
2019-04-11T11:01:50.589Z,9.34
2019-04-11T11:04:38.783Z,9.31
2019-04-11T11:07:13.074Z,8.91
2019-04-11T11:10:01.335Z,8.66
2019-04-11T11:12:52.129Z,8.84
2019-04-11T11:15:28.343Z,8.78
2019-04-11T11:18:53.814Z,8.76
2019-04-11T11:21:07.641Z,8.54
2019-04-11T11:23:54.412Z,8.90
2019-04-11T11:26:32.186Z,8.87
2019-04-11T11:29:20.509Z,8.53
2019-04-11T11:32:05.014Z,8.67
2019-04-11T11:34:37.433Z,9.31
2019-04-11T11:37:25.179Z,10.36
2019-04-11T11:40:28.391Z,10.35
2019-04-11T11:43:16.949Z,9.94
2019-04-11T11:46:10.457Z,10.78
2019-04-11T11:49:04.011Z,10.86
2019-04-11T11:51:37.480Z,10.31
2019-04-11T11:54:11.920Z,9.57
2019-04-11T11:56:40.770Z,9.86
2019-04-11T11:59:30.178Z,9.60
2019-04-11T12:02:00.800Z,9.53
2019-04-11T12:04:48.641Z,9.38
2019-04-11T12:07:18.999Z,9.91
2019-04-11T12:10:06.822Z,9.78
2019-04-11T12:12:42.106Z,9.97
2019-04-11T12:15:37.163Z,10.25
2019-04-11T12:18:21.665Z,10.11
2019-04-11T12:20:58.835Z,9.60
2019-04-11T12:23:57.976Z,9.66
2019-04-11T12:26:20.289Z,9.69
2019-04-11T12:29:08.291Z,9.75
2019-04-11T12:31:37.559Z,9.70
2019-04-11T12:34:16.481Z,9.18
2019-04-11T12:36:48.054Z,9.84
2019-04-11T12:39:33.923Z,10.15
2019-04-11T12:42:08.760Z,9.83
2019-04-11T12:44:45.657Z,9.66
2019-04-11T12:47:25.183Z,9.28
2019-04-11T12:50:23.911Z,9.24
2019-04-11T12:52:56.442Z,9.29
2019-04-11T12:55:33.179Z,9.54
2019-04-11T12:58:08.057Z,9.38
2019-04-11T13:01:00.541Z,9.69
2019-04-11T13:03:57.483Z,9.16
2019-04-11T13:06:41.533Z,9.05
2019-04-11T13:09:18.193Z,9.35
2019-04-11T13:11:48.237Z,9.44
2019-04-11T13:14:45.417Z,9.33
2019-04-11T13:17:17.109Z,9.09
2019-04-11T13:20:05.372Z,9.49
2019-04-11T13:22:33.559Z,9.12
2019-04-11T13:25:20.043Z,8.89
2019-04-11T13:27:51.612Z,9.08
2019-04-11T13:30:38.475Z,9.45
2019-04-11T13:33:26.694Z,9.18
2019-04-11T13:36:13.247Z,9.09
2019-04-11T13:38:46.282Z,9.31
2019-04-11T13:41:32.970Z,9.21
2019-04-11T13:44:09.805Z,9.33
2019-04-11T13:46:57.778Z,8.90
2019-04-11T13:49:46.105Z,8.97
2019-04-11T13:52:33.962Z,9.01
2019-04-11T13:55:10.436Z,8.99
2019-04-11T13:57:58.215Z,9.09
2019-04-11T14:00:39.854Z,8.82
2019-04-11T14:03:30.429Z,8.84
2019-04-11T14:06:02.307Z,9.13
2019-04-11T14:08:39.743Z,9.21
2019-04-11T14:11:10.743Z,8.78
2019-04-11T14:13:40.716Z,8.94
2019-04-11T14:16:20.355Z,8.76
2019-04-11T14:19:14.638Z,8.98
2019-04-11T14:21:44.301Z,9.04
2019-04-11T14:24:25.491Z,9.21
2019-04-11T14:26:54.290Z,9.01
2019-04-11T14:29:50.868Z,8.74
2019-04-11T14:32:27.290Z,8.65
2019-04-11T14:35:29.612Z,8.63
2019-04-11T14:38:09.452Z,8.78
2019-04-11T14:41:12.438Z,8.61
2019-04-11T14:43:45.905Z,8.49
2019-04-11T14:46:36.520Z,8.64
2019-04-11T14:49:10.454Z,8.60
2019-04-11T14:51:58.764Z,8.64
2019-04-11T14:54:42.136Z,8.54
2019-04-11T14:57:38.992Z,8.35
2019-04-11T15:00:45.098Z,8.47
2019-04-11T15:03:35.859Z,8.49
2019-04-11T15:06:17.237Z,8.38
2019-04-11T15:09:06.803Z,8.35
2019-04-11T15:11:47.145Z,8.31
2019-04-11T15:14:35.791Z,8.27
2019-04-11T15:17:26.364Z,8.36
2019-04-11T15:20:13.890Z,8.73
2019-04-11T15:22:48.340Z,8.56
2019-04-11T15:25:23.973Z,8.35
2019-04-11T15:28:07.823Z,8.43
2019-04-11T15:30:36.588Z,8.31
2019-04-11T15:33:27.199Z,8.22
2019-04-11T15:35:58.022Z,8.01
2019-04-11T15:38:45.171Z,8.03
2019-04-11T15:41:15.122Z,8.12
2019-04-11T15:44:01.465Z,8.17
2019-04-11T15:46:31.940Z,8.15
2019-04-11T15:49:21.152Z,7.97
2019-04-11T15:51:52.179Z,8.09
2019-04-11T15:54:40.082Z,8.13
2019-04-11T15:57:19.359Z,7.86
2019-04-11T16:00:07.084Z,7.86
2019-04-11T16:02:47.970Z,7.96
2019-04-11T16:05:35.725Z,7.93
2019-04-11T16:08:17.044Z,7.84
2019-04-11T16:11:07.569Z,7.93
2019-04-11T16:13:49.033Z,7.99
2019-04-11T16:16:17.860Z,8.01
2019-04-11T16:19:18.004Z,7.82
2019-04-11T16:21:59.567Z,7.86
2019-04-11T16:24:31.106Z,7.68
2019-04-11T16:27:07.704Z,7.80
2019-04-11T16:29:43.212Z,7.71
2019-04-11T16:32:12.865Z,7.63
2019-04-11T16:34:49.103Z,7.68
2019-04-11T16:37:18.560Z,7.87
2019-04-11T16:40:05.368Z,7.72
2019-04-11T16:42:39.468Z,7.76
2019-04-11T16:45:27.629Z,7.62
2019-04-11T16:48:04.571Z,7.48
2019-04-11T16:50:32.805Z,7.33
2019-04-11T16:53:01.180Z,7.42
2019-04-11T16:55:29.667Z,7.61
2019-04-11T16:57:58.004Z,7.59
2019-04-11T17:00:26.654Z,7.49
2019-04-11T17:02:55.675Z,7.43
2019-04-11T17:05:26.126Z,7.26
2019-04-11T17:08:12.432Z,7.26
2019-04-11T17:10:58.863Z,7.17
2019-04-11T17:13:27.551Z,7.16
2019-04-11T17:15:59.847Z,7.05
2019-04-11T17:18:26.385Z,7.00
2019-04-11T17:20:54.558Z,6.85
2019-04-11T17:23:22.683Z,6.88
2019-04-11T17:25:53.007Z,6.86
2019-04-11T17:28:23.067Z,6.77
2019-04-11T17:30:55.038Z,6.64
2019-04-11T17:33:21.985Z,6.73
2019-04-11T17:35:50.433Z,6.65
2019-04-11T17:38:18.662Z,6.52
2019-04-11T17:40:47.392Z,6.55
2019-04-11T17:43:15.681Z,6.51
2019-04-11T17:45:43.813Z,6.55
2019-04-11T17:48:12.897Z,6.53
2019-04-11T17:50:41.127Z,6.47
2019-04-11T17:53:09.442Z,6.55
2019-04-11T17:55:38.799Z,6.47
2019-04-11T17:58:06.942Z,6.37
2019-04-11T18:00:38.354Z,6.33
2019-04-11T18:03:06.538Z,6.35
2019-04-11T18:05:34.659Z,6.33
2019-04-11T18:08:03.044Z,6.29
2019-04-11T18:10:31.495Z,6.34
2019-04-11T18:13:00.590Z,6.33
2019-04-11T18:15:31.171Z,6.28
2019-04-11T18:17:59.096Z,6.23
2019-04-11T18:20:27.453Z,6.26
2019-04-11T18:22:55.855Z,6.28
2019-04-11T18:25:24.154Z,6.27
2019-04-11T18:27:52.507Z,6.18
2019-04-11T18:30:23.296Z,6.19
2019-04-11T18:32:51.760Z,6.12
2019-04-11T18:35:19.901Z,6.07
2019-04-11T18:37:48.073Z,6.06
2019-04-11T18:40:17.514Z,6.09
2019-04-11T18:42:45.956Z,6.11
2019-04-11T18:45:17.077Z,6.15
2019-04-11T18:47:46.278Z,6.13
2019-04-11T18:50:16.060Z,6.13
2019-04-11T18:52:44.216Z,6.03
2019-04-11T18:55:13.148Z,6.08
2019-04-11T18:57:41.347Z,5.97
2019-04-11T19:00:15.026Z,6.06
2019-04-11T19:02:44.057Z,5.95
2019-04-11T19:05:13.334Z,5.99
2019-04-11T19:07:43.105Z,5.95
2019-04-11T19:10:15.010Z,5.97
2019-04-11T19:12:43.972Z,5.93
2019-04-11T19:15:16.757Z,5.90
2019-04-11T19:17:46.762Z,5.96
2019-04-11T19:20:18.931Z,5.89
2019-04-11T19:22:45.808Z,5.84
2019-04-11T19:25:13.981Z,5.94
2019-04-11T19:27:42.479Z,5.85
2019-04-11T19:30:11.436Z,5.82
2019-04-11T19:32:39.616Z,5.88
2019-04-11T19:35:08.118Z,5.91
2019-04-11T19:37:36.537Z,5.82
2019-04-11T19:40:05.611Z,5.76
2019-04-11T19:42:33.738Z,5.80
2019-04-11T19:45:02.985Z,5.73
2019-04-11T19:47:31.381Z,5.72
2019-04-11T19:49:59.620Z,5.74
2019-04-11T19:52:29.879Z,5.64
2019-04-11T19:55:04.744Z,5.60
2019-04-11T19:57:32.360Z,5.61
2019-04-11T20:00:00.700Z,5.67
2019-04-11T20:02:28.864Z,5.56
2019-04-11T20:04:57.835Z,5.52
2019-04-11T20:07:26.584Z,5.49
2019-04-11T20:09:54.883Z,5.50
2019-04-11T20:12:23.061Z,5.51
2019-04-11T20:14:51.196Z,5.58
2019-04-11T20:17:19.947Z,5.46
2019-04-11T20:20:00.619Z,5.39
2019-04-11T20:22:19.054Z,5.37
2019-04-11T20:24:47.230Z,5.37
2019-04-11T20:27:20.029Z,5.37
2019-04-11T20:29:46.041Z,5.27
2019-04-11T20:32:15.497Z,5.32
2019-04-11T20:34:43.700Z,5.29
2019-04-11T20:37:12.993Z,5.28
2019-04-11T20:39:46.279Z,5.27
2019-04-11T20:42:12.482Z,5.35
2019-04-11T20:44:42.464Z,5.34
2019-04-11T20:47:10.745Z,5.25
2019-04-11T20:49:48.060Z,5.26
2019-04-11T20:52:16.581Z,5.18
2019-04-11T20:54:45.362Z,5.22
2019-04-11T20:57:24.955Z,5.22
2019-04-11T20:59:43.846Z,5.12
2019-04-11T21:02:12.260Z,5.11
2019-04-11T21:04:40.531Z,5.12
2019-04-11T21:07:08.674Z,5.06
2019-04-11T21:09:36.923Z,5.10
2019-04-11T21:12:07.488Z,5.09
2019-04-11T21:14:35.113Z,5.04
2019-04-11T21:17:03.280Z,4.96
2019-04-11T21:19:31.489Z,4.98
2019-04-11T21:21:59.697Z,4.97
2019-04-11T21:24:30.795Z,4.94
2019-04-11T21:26:59.169Z,4.96
2019-04-11T21:29:30.309Z,4.93
2019-04-11T21:32:00.859Z,4.95
2019-04-11T21:34:29.986Z,4.96
2019-04-11T21:37:01.720Z,4.88
2019-04-11T21:39:29.606Z,4.89
2019-04-11T21:41:57.979Z,4.93
2019-04-11T21:44:26.266Z,4.99
2019-04-11T21:46:54.490Z,4.92
2019-04-11T21:49:22.932Z,4.89
2019-04-11T21:51:51.413Z,4.88
2019-04-11T21:54:20.126Z,4.91
2019-04-11T21:56:49.570Z,4.93
2019-04-11T21:59:20.358Z,4.90
2019-04-11T22:01:49.253Z,4.88
2019-04-11T22:04:17.582Z,4.81
2019-04-11T22:06:46.513Z,4.86
2019-04-11T22:09:14.855Z,4.90
2019-04-11T22:11:43.095Z,4.80
2019-04-11T22:14:11.905Z,4.78
2019-04-11T22:16:44.061Z,4.85
2019-04-11T22:19:14.022Z,4.73
2019-04-11T22:21:40.335Z,4.91
2019-04-11T22:24:09.253Z,4.72
2019-04-11T22:26:37.504Z,4.74
2019-04-11T22:29:05.856Z,4.73
2019-04-11T22:31:34.039Z,4.74
2019-04-11T22:34:10.595Z,4.77
2019-04-11T22:36:39.164Z,4.67
2019-04-11T22:39:09.728Z,4.64
2019-04-11T22:41:38.613Z,4.65
2019-04-11T22:44:07.976Z,4.69
2019-04-11T22:46:37.811Z,4.70
2019-04-11T22:49:08.746Z,4.69
2019-04-11T22:51:36.726Z,4.67
2019-04-11T22:54:05.001Z,4.67
2019-04-11T22:56:33.292Z,4.60
2019-04-11T22:59:01.986Z,4.59
2019-04-11T23:01:30.284Z,4.59
2019-04-11T23:03:59.972Z,4.59
2019-04-11T23:06:28.168Z,4.60
2019-04-11T23:08:56.309Z,4.55
2019-04-11T23:11:24.451Z,4.64
2019-04-11T23:13:52.684Z,4.57
2019-04-11T23:16:20.806Z,4.58
2019-04-11T23:18:48.972Z,4.51
2019-04-11T23:21:17.200Z,4.72
2019-04-11T23:23:45.435Z,4.55
2019-04-11T23:26:13.819Z,4.51
2019-04-11T23:28:45.862Z,4.53
2019-04-11T23:31:12.289Z,4.51
2019-04-11T23:33:40.417Z,4.46
2019-04-11T23:36:08.575Z,4.51
2019-04-11T23:38:36.787Z,4.47
2019-04-11T23:41:04.926Z,4.53
2019-04-11T23:43:33.107Z,4.42
2019-04-11T23:46:01.394Z,4.35
2019-04-11T23:48:29.624Z,4.34
2019-04-11T23:50:58.107Z,4.38
2019-04-11T23:53:29.098Z,4.27
2019-04-11T23:55:59.674Z,4.37
2019-04-11T23:58:26.634Z,4.35
